Time;durP1;ratioP1;P1;durP2;ratioP2;P2;SDS_P1;SDS_P2;PMS_P1;PMS_P2;Temp;Humidity;BMP_temperature;BMP_pressure;BME280_temperature;BME280_humidity;BME280_pressure;Samples;Min_cycle;Max_cycle;Signal;HPM_P1;HPM_P2
2023/03/16 00:01:52;;;;;;;0.50;0.50;;;;;;;2.23;100.00;62231.72;5047347;28;20241;-79
2023/03/16 00:04:19;;;;;;;0.70;0.70;;;;;;;2.27;100.00;62231.34;5048752;28;20202;-78
2023/03/16 00:06:47;;;;;;;0.55;0.55;;;;;;;2.24;100.00;62230.25;5046857;28;20225;-79
2023/03/16 00:09:14;;;;;;;0.50;0.50;;;;;;;2.21;100.00;62222.66;5044839;28;20205;-80
2023/03/16 00:11:41;;;;;;;0.45;0.45;;;;;;;2.17;100.00;62226.06;5048232;28;20218;-78
2023/03/16 00:14:08;;;;;;;0.35;0.35;;;;;;;2.11;100.00;62219.91;5046173;28;20205;-79
2023/03/16 00:16:36;;;;;;;0.50;0.50;;;;;;;2.06;100.00;62204.75;5045287;28;20508;-78
2023/03/16 00:19:04;;;;;;;0.38;0.38;;;;;;;2.01;100.00;62207.16;5044938;28;20202;-77
2023/03/16 00:21:34;;;;;;;0.20;0.20;;;;;;;2.01;100.00;62207.16;5047482;28;20229;-76
2023/03/16 00:24:02;;;;;;;0.40;0.40;;;;;;;1.94;100.00;62196.94;5046355;28;20209;-79
2023/03/16 00:26:30;;;;;;;0.40;0.40;;;;;;;1.91;100.00;62196.88;5045285;28;20229;-78
2023/03/16 00:28:57;;;;;;;0.40;0.40;;;;;;;1.98;100.00;62209.09;5045835;28;20234;-79
2023/03/16 00:31:25;;;;;;;0.40;0.40;;;;;;;1.98;100.00;62198.53;5047535;28;20217;-79
2023/03/16 00:33:52;;;;;;;0.30;0.30;;;;;;;1.87;100.00;62187.75;5047541;28;20202;-80
2023/03/16 00:36:18;;;;;;;0.30;0.30;;;;;;;1.74;100.00;62181.41;5045263;28;20237;-77
2023/03/16 00:38:47;;;;;;;0.60;0.60;;;;;;;1.72;100.00;62174.88;5043287;28;20356;-79
2023/03/16 00:41:15;;;;;;;0.93;0.70;;;;;;;1.79;100.00;62181.53;5046599;28;20233;-77
2023/03/16 00:43:44;;;;;;;0.43;0.43;;;;;;;1.62;100.00;62169.63;5041382;28;20206;-79
2023/03/16 00:46:12;;;;;;;0.55;0.55;;;;;;;1.68;100.00;62172.75;5046562;28;20205;-78
2023/03/16 00:48:42;;;;;;;0.40;0.40;;;;;;;1.66;100.00;62175.69;5047037;28;20193;-78
2023/03/16 00:51:12;;;;;;;0.30;0.30;;;;;;;1.69;100.00;62174.28;5044900;28;20201;-76
2023/03/16 00:53:42;;;;;;;0.30;0.30;;;;;;;1.65;100.00;62170.19;5045510;28;20240;-77
2023/03/16 00:56:09;;;;;;;0.35;0.35;;;;;;;1.67;100.00;62169.22;5046287;28;20198;-78
2023/03/16 00:58:41;;;;;;;0.45;0.45;;;;;;;1.62;100.00;62167.13;5046107;28;20233;-77
2023/03/16 01:01:10;;;;;;;0.73;0.45;;;;;;;1.51;100.00;62160.31;5043403;28;20233;-78
2023/03/16 01:03:37;;;;;;;0.40;0.40;;;;;;;1.53;100.00;62154.84;5045421;28;20209;-78
2023/03/16 01:06:05;;;;;;;0.38;0.38;;;;;;;1.55;100.00;62156.91;5047084;28;20206;-76
2023/03/16 01:08:33;;;;;;;0.40;0.40;;;;;;;1.54;100.00;62161.41;5045806;28;20197;-77
2023/03/16 01:11:03;;;;;;;0.40;0.40;;;;;;;1.55;100.00;62159.41;5043960;28;20202;-79
2023/03/16 01:13:31;;;;;;;0.40;0.40;;;;;;;1.63;100.00;62165.63;5033893;28;20190;-78
2023/03/16 01:16:00;;;;;;;0.50;0.50;;;;;;;1.54;100.00;62158.38;5046020;28;20244;-78
2023/03/16 01:18:27;;;;;;;0.30;0.30;;;;;;;1.55;100.00;62156.91;5037159;28;20203;-78
2023/03/16 01:20:54;;;;;;;0.30;0.30;;;;;;;1.55;100.00;62159.94;5025518;28;20260;-76
2023/03/16 01:23:22;;;;;;;0.50;0.50;;;;;;;1.35;100.00;62141.41;5040435;28;20202;-78
2023/03/16 01:25:52;;;;;;;0.60;0.60;;;;;;;1.37;100.00;62138.94;5037590;28;20410;-76
2023/03/16 01:28:20;;;;;;;0.40;0.40;;;;;;;1.46;100.00;62147.66;5037762;28;20226;-76
2023/03/16 01:30:47;;;;;;;0.55;0.35;;;;;;;1.51;100.00;62155.28;5045941;28;20253;-79
2023/03/16 01:33:16;;;;;;;0.38;0.38;;;;;;;1.33;100.00;62134.34;5044310;28;20434;-76
2023/03/16 01:35:43;;;;;;;1.05;0.75;;;;;;;1.44;100.00;62145.59;5042566;28;20236;-76
2023/03/16 01:38:12;;;;;;;0.35;0.35;;;;;;;1.39;100.00;62148.00;5041951;28;20240;-76
2023/03/16 01:40:40;;;;;;;0.50;0.43;;;;;;;1.42;100.00;62138.53;5045579;28;20197;-77
2023/03/16 01:43:08;;;;;;;0.43;0.43;;;;;;;1.33;100.00;62134.81;5044021;28;20265;-77
2023/03/16 01:46:16;;;;;;;0.40;0.40;;;;;;;1.22;100.00;62123.03;5040398;28;20225;-76
2023/03/16 01:48:54;;;;;;;0.60;0.60;;;;;;;1.21;100.00;62124.53;5044213;28;20534;-77
2023/03/16 01:51:24;;;;;;;0.40;0.40;;;;;;;1.17;100.00;62121.44;5043000;28;20232;-78
2023/03/16 01:53:55;;;;;;;0.30;0.30;;;;;;;1.09;100.00;62110.72;5042463;28;20244;-76
2023/03/16 01:56:27;;;;;;;0.40;0.40;;;;;;;1.08;100.00;62114.72;5044014;28;20245;-77
2023/03/16 01:58:57;;;;;;;0.40;0.40;;;;;;;1.07;100.00;62110.69;5044528;28;20214;-74
2023/03/16 02:01:26;;;;;;;0.50;0.50;;;;;;;0.99;100.00;62100.47;5042339;28;20332;-76
2023/03/16 02:04:03;;;;;;;0.40;0.40;;;;;;;1.08;100.00;62109.19;5044619;28;20210;-76
2023/03/16 02:06:31;;;;;;;0.30;0.30;;;;;;;0.95;100.00;62103.38;5041707;28;20229;-75
2023/03/16 02:09:00;;;;;;;0.30;0.30;;;;;;;1.01;100.00;62099.50;5043969;28;20198;-78
2023/03/16 02:11:27;;;;;;;0.30;0.30;;;;;;;1.01;100.00;62105.03;5042473;28;20228;-75
2023/03/16 02:13:56;;;;;;;0.40;0.40;;;;;;;1.03;100.00;62104.06;5042444;28;20386;-75
2023/03/16 02:16:23;;;;;;;0.40;0.40;;;;;;;1.09;100.00;62110.72;5044033;28;20222;-76
2023/03/16 02:18:52;;;;;;;0.38;0.38;;;;;;;1.12;100.00;62118.31;5043226;28;20217;-76
2023/03/16 02:21:31;;;;;;;0.47;0.47;;;;;;;1.14;100.00;62117.84;5043496;28;20236;-74
2023/03/16 02:24:01;;;;;;;0.38;0.38;;;;;;;1.14;100.00;62115.84;5045009;28;20206;-77
2023/03/16 02:26:33;;;;;;;0.35;0.35;;;;;;;1.10;100.00;62111.25;5048416;28;20241;-76
2023/03/16 02:29:14;;;;;;;0.28;0.28;;;;;;;1.18;100.00;62119.97;5044978;28;20205;-77
2023/03/16 02:31:43;;;;;;;0.30;0.30;;;;;;;1.19;100.00;62120.47;5044882;28;20419;-77
2023/03/16 02:34:14;;;;;;;0.45;0.45;;;;;;;1.14;100.00;62117.84;5047239;28;20216;-77
2023/03/16 02:36:44;;;;;;;0.30;0.30;;;;;;;1.11;100.00;62110.28;5045244;28;20218;-76
2023/03/16 02:39:11;;;;;;;0.32;0.32;;;;;;;1.14;100.00;62115.84;5047196;28;21624;-75
2023/03/16 02:41:38;;;;;;;0.40;0.40;;;;;;;1.14;100.00;62117.84;5044910;28;20241;-74
2023/03/16 02:44:14;;;;;;;0.30;0.30;;;;;;;1.16;100.00;62115.41;5048617;28;20385;-75
2023/03/16 02:46:43;;;;;;;0.25;0.25;;;;;;;1.10;100.00;62111.25;5044977;28;20248;-75
2023/03/16 02:49:18;;;;;;;0.28;0.28;;;;;;;1.02;100.00;62103.03;5046453;28;20198;-74
2023/03/16 02:51:46;;;;;;;0.30;0.30;;;;;;;1.13;100.00;62112.31;5041058;28;20218;-75
2023/03/16 02:54:13;;;;;;;0.20;0.20;;;;;;;1.07;100.00;62111.19;5047228;28;20205;-75
2023/03/16 02:56:40;;;;;;;0.13;0.13;;;;;;;1.02;100.00;62105.53;5045626;28;20240;-75
2023/03/16 02:59:08;;;;;;;0.20;0.20;;;;;;;1.00;100.00;62104.00;5040192;28;20210;-77
2023/03/16 03:01:35;;;;;;;0.20;0.20;;;;;;;0.99;100.00;62097.97;5026416;28;20504;-77
2023/03/16 03:04:04;;;;;;;0.10;0.10;;;;;;;0.87;100.00;62088.16;5028150;28;20203;-76
2023/03/16 03:06:32;;;;;;;0.05;0.05;;;;;;;0.91;100.00;62094.25;5047069;28;20269;-76
2023/03/16 03:08:59;;;;;;;0.10;0.10;;;;;;;0.94;100.00;62094.81;5047474;28;20563;-75
2023/03/16 03:11:26;;;;;;;0.20;0.20;;;;;;;0.79;100.00;62079.44;5046284;28;20226;-75
2023/03/16 03:13:54;;;;;;;0.10;0.10;;;;;;;0.82;100.00;62088.03;5045491;28;20205;-77
2023/03/16 03:16:21;;;;;;;0.10;0.10;;;;;;;0.80;100.00;62080.97;5045711;28;20218;-75
2023/03/16 03:18:48;;;;;;;0.10;0.10;;;;;;;0.80;100.00;62080.47;5046142;28;20394;-75
2023/03/16 03:21:16;;;;;;;0.25;0.25;;;;;;;0.89;100.00;62092.72;5046548;28;20518;-76
2023/03/16 03:23:45;;;;;;;0.05;0.05;;;;;;;0.82;100.00;62085.03;5046778;28;20274;-78
2023/03/16 03:26:13;;;;;;;0.10;0.10;;;;;;;0.93;100.00;62093.81;5043709;28;20206;-76
2023/03/16 03:28:40;;;;;;;0.30;0.30;;;;;;;0.92;100.00;62092.78;5048019;28;20236;-77
2023/03/16 03:31:07;;;;;;;0.00;0.00;;;;;;;0.96;100.00;62099.38;5044954;28;20204;-80
2023/03/16 03:33:34;;;;;;;0.10;0.10;;;;;;;0.90;100.00;62090.72;5046479;28;20401;-77
2023/03/16 03:36:01;;;;;;;0.10;0.10;;;;;;;0.92;100.00;62095.78;5045010;28;20216;-77
2023/03/16 03:38:30;;;;;;;0.13;0.13;;;;;;;0.84;100.00;62079.56;5047353;28;20209;-74
2023/03/16 03:40:59;;;;;;;0.17;0.17;;;;;;;0.83;100.00;62086.56;5043101;28;20376;-76
2023/03/16 03:43:26;;;;;;;0.93;0.30;;;;;;;0.82;100.00;62080.00;5046213;28;20253;-78
2023/03/16 03:45:56;;;;;;;0.10;0.10;;;;;;;0.77;100.00;62074.88;5026917;28;20198;-77
2023/03/16 03:48:23;;;;;;;0.10;0.10;;;;;;;0.80;100.00;62082.97;5026790;28;20234;-79
2023/03/16 03:50:50;;;;;;;0.30;0.30;;;;;;;0.83;100.00;62086.56;5043085;28;20252;-78
2023/03/16 03:53:17;;;;;;;0.22;0.22;;;;;;;0.87;100.00;62088.16;5045300;28;20226;-76
2023/03/16 03:55:46;;;;;;;0.28;0.28;;;;;;;0.84;100.00;62087.06;5048115;28;20202;-78
2023/03/16 03:58:13;;;;;;;0.13;0.13;;;;;;;0.89;100.00;62090.22;5044066;28;20426;-76
2023/03/16 04:00:41;;;;;;;0.00;0.00;;;;;;;0.89;100.00;62097.72;5046805;28;20194;-78
2023/03/16 04:03:08;;;;;;;0.28;0.28;;;;;;;0.84;100.00;62085.09;5045354;28;20590;-77
2023/03/16 04:05:35;;;;;;;0.20;0.20;;;;;;;0.79;100.00;62079.97;5047409;28;20414;-78
2023/03/16 04:08:02;;;;;;;0.00;0.00;;;;;;;0.81;100.00;62081.50;5046181;28;20214;-78
2023/03/16 04:10:30;;;;;;;0.10;0.10;;;;;;;0.84;100.00;62087.06;5047619;28;20266;-77
2023/03/16 04:12:59;;;;;;;0.30;0.20;;;;;;;0.87;100.00;62087.66;5026332;28;20229;-79
2023/03/16 04:15:26;;;;;;;0.05;0.05;;;;;;;0.87;100.00;62090.66;5041612;28;20361;-78
2023/03/16 04:17:53;;;;;;;0.05;0.05;;;;;;;0.86;100.00;62084.63;5043617;28;20248;-79
2023/03/16 04:20:22;;;;;;;0.10;0.10;;;;;;;0.90;100.00;62093.75;5046250;28;20372;-77
2023/03/16 04:22:57;;;;;;;0.15;0.15;;;;;;;0.89;100.00;62090.22;5046822;28;20260;-80
2023/03/16 04:25:25;;;;;;;0.15;0.15;;;;;;;0.85;100.00;62091.13;5043983;28;20463;-82
2023/03/16 04:27:52;;;;;;;0.20;0.20;;;;;;;0.78;100.00;62080.91;5032116;28;20260;-77
2023/03/16 04:30:23;;;;;;;0.00;0.00;;;;;;;0.77;100.00;62077.41;5025438;28;20248;-78
2023/03/16 04:32:51;;;;;;;0.00;0.00;;;;;;;0.75;100.00;62073.34;5031746;28;20221;-77
2023/03/16 04:35:18;;;;;;;0.10;0.10;;;;;;;0.79;100.00;62082.47;5042919;28;20198;-77
2023/03/16 04:37:45;;;;;;;0.20;0.20;;;;;;;0.84;100.00;62082.59;5048622;28;20238;-78
2023/03/16 04:40:15;;;;;;;0.05;0.05;;;;;;;0.81;100.00;62082.00;5044893;28;20209;-77
2023/03/16 04:42:43;;;;;;;0.20;0.20;;;;;;;0.81;100.00;62082.00;5043278;28;20522;-75
2023/03/16 04:45:11;;;;;;;0.20;0.20;;;;;;;0.77;100.00;62080.41;5042756;28;20365;-77
2023/03/16 04:47:39;;;;;;;0.50;0.10;;;;;;;0.64;100.00;62066.56;5043715;28;20222;-74
2023/03/16 04:50:09;;;;;;;0.28;0.28;;;;;;;0.81;100.00;62084.00;5044659;28;20209;-77
2023/03/16 04:52:36;;;;;;;0.20;0.20;;;;;;;0.81;100.00;62086.50;5044855;28;20272;-75
2023/03/16 04:55:04;;;;;;;0.25;0.20;;;;;;;0.87;100.00;62090.66;5044208;28;20202;-77
2023/03/16 04:57:31;;;;;;;0.20;0.20;;;;;;;0.89;100.00;62092.22;5024882;28;20290;-76
2023/03/16 04:59:58;;;;;;;0.00;0.00;;;;;;;0.81;100.00;62084.50;5024592;28;20218;-77
2023/03/16 05:02:25;;;;;;;0.10;0.10;;;;;;;0.87;100.00;62087.66;5036037;28;20238;-78
2023/03/16 05:04:54;;;;;;;0.35;0.35;;;;;;;0.94;100.00;62092.31;5042835;28;20261;-77
2023/03/16 05:07:20;;;;;;;0.32;0.20;;;;;;;0.90;100.00;62096.25;5045654;28;20221;-76
2023/03/16 05:09:48;;;;;;;0.30;0.30;;;;;;;0.91;100.00;62094.78;5044849;28;20252;-76
2023/03/16 05:12:15;;;;;;;0.30;0.30;;;;;;;0.91;100.00;62092.28;5042817;28;20233;-78
2023/03/16 05:14:42;;;;;;;0.20;0.20;;;;;;;0.91;100.00;62089.75;5042592;28;20213;-76
2023/03/16 05:17:09;;;;;;;0.30;0.30;;;;;;;0.99;100.00;62105.47;5044861;28;20287;-76
2023/03/16 05:19:36;;;;;;;0.20;0.20;;;;;;;1.03;100.00;62107.09;5043403;28;20495;-77
2023/03/16 05:22:05;;;;;;;0.50;0.50;;;;;;;1.09;100.00;62110.22;5046094;28;20226;-77
2023/03/16 05:24:32;;;;;;;0.20;0.20;;;;;;;1.05;100.00;62106.63;5042290;28;20474;-78
2023/03/16 05:27:02;;;;;;;0.10;0.10;;;;;;;1.10;100.00;62111.75;5024662;28;20390;-77
2023/03/16 05:29:30;;;;;;;0.57;0.50;;;;;;;1.12;100.00;62113.28;5033666;28;20205;-76
2023/03/16 05:31:56;;;;;;;0.20;0.20;;;;;;;1.14;100.00;62115.34;5042027;28;20221;-76
2023/03/16 05:34:23;;;;;;;0.20;0.20;;;;;;;1.00;100.00;62098.97;5043870;28;20206;-76
2023/03/16 05:36:51;;;;;;;0.13;0.13;;;;;;;0.99;100.00;62099.94;5046985;28;20229;-76
2023/03/16 05:39:19;;;;;;;0.30;0.30;;;;;;;1.03;100.00;62104.56;5043191;28;20201;-76
2023/03/16 05:41:46;;;;;;;0.30;0.30;;;;;;;0.92;100.00;62092.78;5041585;28;20225;-75
2023/03/16 05:44:13;;;;;;;0.17;0.17;;;;;;;0.89;100.00;62087.72;5043270;28;20358;-77
2023/03/16 05:46:39;;;;;;;0.32;0.32;;;;;;;0.95;100.00;62100.84;5041231;28;20645;-78
2023/03/16 05:49:06;;;;;;;0.70;0.70;;;;;;;0.89;100.00;62095.22;5039905;28;20217;-75
2023/03/16 05:51:33;;;;;;;0.20;0.20;;;;;;;0.93;100.00;62096.81;5044236;28;20291;-76
2023/03/16 05:54:00;;;;;;;0.17;0.17;;;;;;;0.94;100.00;62095.34;5040156;28;20198;-77
2023/03/16 05:56:29;;;;;;;0.25;0.17;;;;;;;0.99;100.00;62102.47;5039705;28;20378;-76
2023/03/16 05:58:57;;;;;;;0.20;0.20;;;;;;;1.00;100.00;62101.50;5044316;28;20205;-77
2023/03/16 06:01:24;;;;;;;0.10;0.10;;;;;;;0.98;100.00;62104.44;5043197;28;20238;-77
2023/03/16 06:03:51;;;;;;;0.40;0.40;;;;;;;0.98;100.00;62101.94;5046123;28;20247;-76
2023/03/16 06:06:19;;;;;;;0.20;0.20;;;;;;;0.94;100.00;62097.34;5044171;28;20248;-77
2023/03/16 06:08:46;;;;;;;0.20;0.20;;;;;;;0.95;100.00;62098.34;5044467;28;20205;-76
2023/03/16 06:11:14;;;;;;;0.25;0.25;;;;;;;0.93;100.00;62093.81;5047077;28;20418;-78
2023/03/16 06:13:43;;;;;;;0.50;0.50;;;;;;;0.92;100.00;62095.28;5048013;28;20198;-77
2023/03/16 06:16:10;;;;;;;3.17;0.65;;;;;;;0.96;100.00;62097.41;5049660;28;20534;-80
2023/03/16 06:18:38;;;;;;;0.30;0.30;;;;;;;0.91;100.00;62094.25;5045291;28;20203;-78
2023/03/16 06:21:05;;;;;;;0.50;0.50;;;;;;;0.96;100.00;62097.41;5049180;28;20209;-78
2023/03/16 06:23:33;;;;;;;0.40;0.40;;;;;;;0.97;100.00;62097.91;5051976;28;20225;-77
2023/03/16 06:26:00;;;;;;;1.38;0.73;;;;;;;1.00;100.00;62101.50;5039934;28;20233;-78
2023/03/16 06:28:27;;;;;;;0.30;0.30;;;;;;;1.02;100.00;62108.56;5049271;28;20390;-77
2023/03/16 06:30:56;;;;;;;0.22;0.22;;;;;;;0.96;100.00;62102.41;5048419;28;20198;-77
2023/03/16 06:33:25;;;;;;;0.45;0.45;;;;;;;1.04;100.00;62112.59;5048473;28;20208;-77
2023/03/16 06:35:51;;;;;;;0.50;0.50;;;;;;;1.06;100.00;62115.16;5045057;28;20198;-76
2023/03/16 06:38:19;;;;;;;0.82;0.60;;;;;;;1.06;100.00;62119.66;5042768;28;20415;-79
2023/03/16 06:40:51;;;;;;;1.50;1.05;;;;;;;1.08;100.00;62111.69;5048294;28;20216;-79
2023/03/16 06:43:18;;;;;;;2.90;1.00;;;;;;;1.19;100.00;62123.50;5046816;28;20276;-78
2023/03/16 06:45:45;;;;;;;2.35;0.90;;;;;;;1.15;100.00;62118.88;5041799;28;20492;-77
2023/03/16 06:48:13;;;;;;;1.50;0.95;;;;;;;1.13;100.00;62114.84;5045422;28;20288;-79
2023/03/16 06:50:40;;;;;;;0.30;0.30;;;;;;;1.09;100.00;62110.22;5049648;28;20206;-80
2023/03/16 06:53:07;;;;;;;0.55;0.55;;;;;;;1.13;100.00;62114.84;5048037;28;20333;-76
2023/03/16 06:55:34;;;;;;;1.50;0.60;;;;;;;1.15;100.00;62119.41;5047051;28;20249;-78
2023/03/16 06:58:00;;;;;;;0.93;0.93;;;;;;;1.26;100.00;62130.16;5045911;28;20218;-77
2023/03/16 07:00:27;;;;;;;3.00;0.95;;;;;;;1.31;100.00;62130.28;5047030;28;20212;-77
2023/03/16 07:02:55;;;;;;;0.90;0.90;;;;;;;1.39;100.00;62142.97;5046526;28;20237;-78
2023/03/16 07:05:23;;;;;;;1.48;0.40;;;;;;;1.35;100.00;62136.38;5046048;28;20212;-75
2023/03/16 07:07:50;;;;;;;0.63;0.63;;;;;;;1.35;100.00;62139.38;5047160;28;20398;-77
2023/03/16 07:10:18;;;;;;;0.40;0.40;;;;;;;1.18;100.00;62122.47;5046154;28;20237;-79
2023/03/16 07:12:45;;;;;;;0.98;0.43;;;;;;;1.23;100.00;62126.56;5049223;28;20214;-78
2023/03/16 07:15:13;;;;;;;0.43;0.43;;;;;;;1.42;100.00;62146.56;5054345;28;20206;-80
2023/03/16 07:17:41;;;;;;;0.80;0.80;;;;;;;1.66;100.00;62171.22;5043790;28;20218;-76
2023/03/16 07:20:11;;;;;;;0.90;0.50;;;;;;;1.65;100.00;62167.69;5044874;28;20272;-78
2023/03/16 07:22:40;;;;;;;0.47;0.47;;;;;;;1.67;100.00;62172.25;5042332;28;20230;-78
2023/03/16 07:25:10;;;;;;;0.68;0.68;;;;;;;1.78;100.00;62180.50;5042784;28;20206;-77
2023/03/16 07:27:37;;;;;;;0.50;0.50;;;;;;;1.76;100.00;62181.47;5046632;28;20264;-74
2023/03/16 07:30:05;;;;;;;0.30;0.30;;;;;;;1.79;100.00;62179.03;5047375;28;20225;-80
2023/03/16 07:32:32;;;;;;;0.35;0.35;;;;;;;1.93;100.00;62198.41;5047928;28;20219;-78
2023/03/16 07:34:59;;;;;;;0.85;0.85;;;;;;;1.73;100.00;62175.88;5047965;28;20232;-77
2023/03/16 07:37:26;;;;;;;0.17;0.17;;;;;;;1.79;100.00;62184.56;5047145;28;20252;-79
2023/03/16 07:39:55;;;;;;;0.93;0.50;;;;;;;1.93;100.00;62201.44;5048799;28;20210;-76
2023/03/16 07:42:22;;;;;;;0.70;0.70;;;;;;;1.95;100.00;62200.47;5045605;28;20222;-78
2023/03/16 07:44:50;;;;;;;0.82;0.70;;;;;;;2.00;100.00;62208.63;5043857;28;20198;-76
2023/03/16 07:47:17;;;;;;;0.47;0.47;;;;;;;2.08;100.00;62211.31;5046815;28;20222;-75
2023/03/16 07:49:44;;;;;;;0.98;0.77;;;;;;;2.08;100.00;62216.31;5047437;28;20530;-79
2023/03/16 07:52:12;;;;;;;0.82;0.57;;;;;;;2.14;100.00;62217.47;5049445;28;20217;-77
2023/03/16 07:54:40;;;;;;;0.47;0.47;;;;;;;2.11;100.00;62221.91;5045236;28;20213;-77
2023/03/16 07:57:08;;;;;;;0.45;0.45;;;;;;;2.34;100.00;62240.53;5046341;28;20766;-76
2023/03/16 07:59:35;;;;;;;0.70;0.50;;;;;;;2.33;100.00;62236.97;5046501;28;20198;-77
2023/03/16 08:02:03;;;;;;;0.82;0.82;;;;;;;2.51;100.00;62257.97;5043516;28;20230;-76
2023/03/16 08:04:30;;;;;;;0.43;0.40;;;;;;;2.54;100.00;62258.03;5042337;28;20259;-76
2023/03/16 08:06:59;;;;;;;0.45;0.45;;;;;;;2.45;100.00;62254.31;5042280;28;20280;-77
2023/03/16 08:09:26;;;;;;;0.68;0.60;;;;;;;2.50;100.00;62258.94;5047748;28;20190;-76
2023/03/16 08:11:53;;;;;;;0.65;0.65;;;;;;;2.71;100.00;62276.00;5044245;28;20530;-79
2023/03/16 08:14:22;;;;;;;0.63;0.63;;;;;;;2.65;100.00;62269.34;5045285;28;20230;-77
2023/03/16 08:16:49;;;;;;;0.65;0.63;;;;;;;2.57;100.00;62266.16;5044547;28;20226;-74
2023/03/16 08:19:16;;;;;;;0.52;0.52;;;;;;;2.84;100.00;62288.84;5039257;28;20209;-73
2023/03/16 08:21:43;;;;;;;0.57;0.57;;;;;;;3.00;100.00;62310.84;5044201;28;20256;-75
2023/03/16 08:24:10;;;;;;;0.60;0.60;;;;;;;3.08;100.00;62314.03;5041684;28;20292;-75
2023/03/16 08:26:37;;;;;;;0.43;0.43;;;;;;;2.89;100.00;62294.00;5035637;28;20510;-71
2023/03/16 08:29:04;;;;;;;1.05;0.90;;;;;;;2.52;100.00;62253.97;5044384;28;20265;-76
2023/03/16 08:31:34;;;;;;;1.85;0.77;;;;;;;2.65;100.00;62272.38;5044563;28;20237;-75
2023/03/16 08:34:01;;;;;;;0.68;0.68;;;;;;;2.72;100.00;62279.56;5043260;28;20360;-72
2023/03/16 08:36:29;;;;;;;0.60;0.60;;;;;;;2.65;100.00;62274.88;5044507;28;20222;-74
2023/03/16 08:38:56;;;;;;;0.73;0.73;;;;;;;2.44;100.00;62250.78;5044070;28;20198;-72
2023/03/16 08:41:23;;;;;;;1.00;0.90;;;;;;;2.39;100.00;62248.16;5041997;28;20268;-74
2023/03/16 08:43:51;;;;;;;0.70;0.70;;;;;;;2.61;100.00;62270.75;5043701;28;20234;-74
2023/03/16 08:46:20;;;;;;;1.30;0.77;;;;;;;2.73;100.00;62280.56;5044043;28;20217;-72
2023/03/16 08:48:48;;;;;;;0.40;0.40;;;;;;;2.72;100.00;62282.06;5044316;28;20266;-75
2023/03/16 08:51:17;;;;;;;1.00;0.77;;;;;;;2.89;100.00;62294.00;5042293;28;20241;-75
2023/03/16 08:53:45;;;;;;;0.70;0.70;;;;;;;2.68;100.00;62275.44;5043997;28;20202;-77
2023/03/16 08:56:14;;;;;;;0.50;0.50;;;;;;;2.84;100.00;62289.38;5041993;28;20193;-76
2023/03/16 08:58:44;;;;;;;0.50;0.50;;;;;;;2.94;100.00;62301.63;5042746;28;20234;-77
2023/03/16 09:01:12;;;;;;;1.52;0.73;;;;;;;3.15;100.00;62321.22;5042053;28;20262;-75
2023/03/16 09:03:41;;;;;;;0.75;0.75;;;;;;;2.80;100.00;62284.75;5044432;28;20227;-76
2023/03/16 09:06:12;;;;;;;0.45;0.45;;;;;;;3.02;100.00;62305.34;5044603;28;20194;-74
2023/03/16 09:08:39;;;;;;;0.38;0.38;;;;;;;3.31;99.51;62340.19;5041082;28;20382;-75
2023/03/16 09:11:09;;;;;;;0.80;0.80;;;;;;;3.33;97.59;62339.72;5044402;28;20248;-76
2023/03/16 09:13:37;;;;;;;0.50;0.50;;;;;;;3.29;96.01;62340.66;5043802;28;20202;-76
2023/03/16 09:16:04;;;;;;;0.55;0.55;;;;;;;3.20;95.35;62328.38;5045222;28;20487;-76
2023/03/16 09:18:31;;;;;;;1.10;0.73;;;;;;;3.03;98.83;62310.91;5038090;28;20201;-76
2023/03/16 09:20:58;;;;;;;0.55;0.55;;;;;;;3.02;97.67;62309.88;5045272;28;20429;-75
2023/03/16 09:23:28;;;;;;;0.95;0.95;;;;;;;2.88;100.00;62298.00;5040565;28;20321;-73
2023/03/16 09:25:58;;;;;;;0.90;0.90;;;;;;;2.91;100.00;62301.06;5040966;28;20206;-76
2023/03/16 09:28:26;;;;;;;0.75;0.75;;;;;;;2.94;100.00;62299.13;5043327;28;20503;-74
2023/03/16 09:30:53;;;;;;;0.68;0.68;;;;;;;2.93;100.00;62296.13;5044281;28;20422;-75
2023/03/16 09:33:20;;;;;;;0.55;0.55;;;;;;;2.88;99.05;62295.47;5048826;28;20377;-75
2023/03/16 09:35:48;;;;;;;0.80;0.80;;;;;;;2.91;99.44;62296.03;5051831;28;20197;-76
2023/03/16 09:38:16;;;;;;;0.70;0.70;;;;;;;2.93;99.59;62301.13;5051692;28;20217;-74
2023/03/16 09:40:46;;;;;;;0.60;0.60;;;;;;;2.96;100.00;62306.22;5048414;28;20193;-76
2023/03/16 09:43:29;;;;;;;1.00;1.00;;;;;;;3.01;100.00;62309.34;5048732;28;20460;-76
2023/03/16 09:46:05;;;;;;;0.85;0.85;;;;;;;3.00;100.00;62308.31;5050157;28;20495;-75
2023/03/16 09:48:35;;;;;;;1.00;1.00;;;;;;;3.01;99.62;62309.34;5049495;28;20201;-79
2023/03/16 09:51:06;;;;;;;0.82;0.82;;;;;;;2.96;100.00;62301.19;5052810;28;20190;-74
2023/03/16 09:53:37;;;;;;;0.90;0.90;;;;;;;2.88;100.00;62298.50;5049710;28;20201;-76
2023/03/16 09:56:10;;;;;;;0.65;0.65;;;;;;;2.52;100.00;62258.50;5048540;28;20198;-73
2023/03/16 09:58:37;;;;;;;0.60;0.60;;;;;;;2.12;100.00;62215.91;5048969;28;20194;-74
2023/03/16 10:01:12;;;;;;;1.00;1.00;;;;;;;2.33;100.00;62240.00;5049749;28;20210;-75
2023/03/16 10:03:59;;;;;;;1.00;1.00;;;;;;;2.44;100.00;62248.28;5051507;28;20235;-75
2023/03/16 10:06:27;;;;;;;0.98;0.98;;;;;;;2.56;100.00;62268.13;5049071;28;20287;-76
2023/03/16 10:09:04;;;;;;;1.38;1.00;;;;;;;2.53;100.00;62259.50;5049288;28;20244;-75
2023/03/16 10:11:35;;;;;;;0.88;0.88;;;;;;;2.46;100.00;62252.84;5049440;28;20221;-73
2023/03/16 10:14:16;;;;;;;1.60;1.50;;;;;;;2.46;100.00;62252.31;5048615;28;20496;-75
2023/03/16 10:16:47;;;;;;;1.20;1.10;;;;;;;2.21;100.00;62230.19;5050634;28;20395;-74
2023/03/16 10:19:19;;;;;;;1.40;1.33;;;;;;;2.47;100.00;62253.88;5049301;28;20244;-73
2023/03/16 10:21:48;;;;;;;1.05;1.02;;;;;;;2.63;100.00;62272.81;5051609;28;20260;-73
2023/03/16 10:24:33;;;;;;;2.20;1.92;;;;;;;2.65;100.00;62269.34;5047117;28;20233;-74
2023/03/16 10:27:04;;;;;;;1.05;1.00;;;;;;;2.84;100.00;62291.88;5045818;28;20217;-74
2023/03/16 10:29:37;;;;;;;1.50;1.50;;;;;;;2.74;100.00;62286.66;5048670;28;20396;-74
2023/03/16 10:32:15;;;;;;;1.00;1.00;;;;;;;2.51;100.00;62260.50;5043357;28;20218;-76
2023/03/16 10:34:45;;;;;;;1.00;1.00;;;;;;;2.51;100.00;62260.50;5046622;28;20316;-74
2023/03/16 10:37:14;;;;;;;1.25;1.25;;;;;;;2.76;100.00;62283.66;5048772;28;20236;-76
2023/03/16 10:39:42;;;;;;;1.13;1.13;;;;;;;2.94;100.00;62299.66;5047693;28;20202;-74
2023/03/16 10:42:17;;;;;;;2.15;1.40;;;;;;;3.07;100.00;62309.97;5044601;28;20419;-75
2023/03/16 10:44:45;;;;;;;2.15;1.40;;;;;;;3.11;100.00;62314.06;5042892;28;20552;-74
2023/03/16 10:47:22;;;;;;;3.13;1.10;;;;;;;3.12;100.00;62317.63;5045156;28;20417;-74
2023/03/16 10:49:50;;;;;;;1.83;1.70;;;;;;;2.92;100.00;62302.63;5044485;28;20489;-74
2023/03/16 10:52:20;;;;;;;1.80;1.70;;;;;;;3.00;100.00;62305.31;5042437;28;20230;-75
2023/03/16 10:54:53;;;;;;;1.05;1.05;;;;;;;3.15;100.00;62320.72;5045517;28;20240;-75
2023/03/16 10:57:33;;;;;;;1.58;1.48;;;;;;;3.28;100.00;62334.59;5045369;28;20217;-76
2023/03/16 11:00:14;;;;;;;1.08;1.08;;;;;;;3.34;100.00;62345.28;5044647;28;20240;-74
2023/03/16 11:02:42;;;;;;;1.63;1.52;;;;;;;3.34;100.00;62343.28;5042279;28;20225;-76
2023/03/16 11:05:15;;;;;;;1.42;1.10;;;;;;;3.20;99.94;62328.38;5045553;28;20234;-76
2023/03/16 11:07:48;;;;;;;1.73;1.63;;;;;;;2.79;100.00;62289.25;5046247;28;20218;-74
2023/03/16 11:10:28;;;;;;;1.55;1.45;;;;;;;2.75;100.00;62279.59;5045380;28;20221;-73
2023/03/16 11:13:01;;;;;;;1.27;1.17;;;;;;;2.93;100.00;62301.13;5043694;28;20903;-74
2023/03/16 11:15:38;;;;;;;1.33;1.33;;;;;;;2.91;100.00;62301.59;5046034;28;20201;-76
2023/03/16 11:18:07;;;;;;;2.03;1.92;;;;;;;2.91;100.00;62301.59;5045884;28;20233;-76
2023/03/16 11:20:35;;;;;;;2.53;2.33;;;;;;;2.94;100.00;62301.63;5036979;28;20256;-75
2023/03/16 11:23:02;;;;;;;1.42;1.40;;;;;;;3.00;100.00;62310.34;5035996;28;20242;-75
2023/03/16 11:25:37;;;;;;;2.20;2.10;;;;;;;3.08;100.00;62313.53;5045140;28;20246;-74
2023/03/16 11:28:16;;;;;;;2.35;2.15;;;;;;;3.14;100.00;62324.72;5043216;28;20241;-75
2023/03/16 11:30:49;;;;;;;1.73;1.63;;;;;;;3.14;100.00;62320.19;5036493;28;20204;-75
2023/03/16 11:33:16;;;;;;;1.35;1.25;;;;;;;2.97;100.00;62307.25;5045330;28;20420;-72
2023/03/16 11:35:52;;;;;;;1.92;1.77;;;;;;;3.04;100.00;62317.47;5045610;28;20486;-75
2023/03/16 11:38:26;;;;;;;1.95;1.85;;;;;;;3.01;100.00;62303.81;5042873;28;20275;-76
2023/03/16 11:40:57;;;;;;;2.58;2.05;;;;;;;2.99;100.00;62304.78;5045799;28;20214;-75
2023/03/16 11:43:48;;;;;;;2.88;2.33;;;;;;;2.96;100.00;62298.66;5043450;28;20285;-74